Time;durP1;ratioP1;P1;durP2;ratioP2;P2;SDS_P1;SDS_P2;PMS_P1;PMS_P2;Temp;Humidity;BMP_temperature;BMP_pressure;BME280_temperature;BME280_humidity;BME280_pressure;Samples;Min_cycle;Max_cycle;Signal;HPM_P1;HPM_P2
2023/12/10 00:01:26;;;;;;;22.73;12.27;;;;;;;;;;6190682;28;20224;-74
2023/12/10 00:04:28;;;;;;;20.55;12.45;;;;;;;;;;6203365;28;20081;-74
2023/12/10 00:07:31;;;;;;;23.95;14.20;;;;;;;;;;6202767;28;20183;-74
2023/12/10 00:10:33;;;;;;;23.80;12.45;;;;;;;;;;6207021;28;20053;-74
2023/12/10 00:13:35;;;;;;;22.75;13.20;;;;;;;;;;6210771;28;20045;-75
2023/12/10 00:16:37;;;;;;;21.27;11.23;;;;;;;;;;6216403;28;20101;-75
2023/12/10 00:19:39;;;;;;;17.95;10.88;;;;;;;;;;6179254;28;20058;-75
2023/12/10 00:22:42;;;;;;;18.88;11.13;;;;;;;;;;6212335;28;20061;-73
2023/12/10 00:25:45;;;;;;;14.55;10.13;;;;;;;;;;6224440;28;20089;-74
2023/12/10 00:28:47;;;;;;;16.20;10.82;;;;;;;;;;6215394;28;20048;-74
2023/12/10 00:31:49;;;;;;;20.70;9.10;;;;;;;;;;6219942;28;20474;-73
2023/12/10 00:34:52;;;;;;;16.75;9.23;;;;;;;;;;6216019;28;20488;-73
2023/12/10 00:37:55;;;;;;;15.93;9.23;;;;;;;;;;6203203;28;20050;-74
2023/12/10 00:40:57;;;;;;;17.27;10.13;;;;;;;;;;6198502;28;20144;-73
2023/12/10 00:43:59;;;;;;;16.48;10.10;;;;;;;;;;6213933;28;20038;-74
2023/12/10 00:47:01;;;;;;;17.95;10.27;;;;;;;;;;6210615;28;20054;-74
2023/12/10 00:50:04;;;;;;;17.08;10.13;;;;;;;;;;6197383;28;20072;-73
2023/12/10 00:53:06;;;;;;;13.98;9.38;;;;;;;;;;6177465;28;20054;-74
2023/12/10 00:56:09;;;;;;;17.17;9.05;;;;;;;;;;6211217;28;20054;-76
2023/12/10 00:59:11;;;;;;;15.65;9.27;;;;;;;;;;6209822;28;20045;-73
2023/12/10 01:02:13;;;;;;;18.00;10.38;;;;;;;;;;6201545;28;20136;-74
2023/12/10 01:05:15;;;;;;;20.23;11.52;;;;;;;;;;6192476;28;20062;-74
2023/12/10 01:08:18;;;;;;;19.95;11.18;;;;;;;;;;6191240;28;20046;-74
2023/12/10 01:11:20;;;;;;;21.98;13.35;;;;;;;;;;6191278;28;20053;-75
2023/12/10 01:14:23;;;;;;;29.02;13.90;;;;;;;;;;6198793;28;20041;-75
2023/12/10 01:17:25;;;;;;;23.83;14.00;;;;;;;;;;6232062;28;20073;-75
2023/12/10 01:20:31;;;;;;;25.13;12.68;;;;;;;;;;6236690;28;20040;-74
2023/12/10 01:23:33;;;;;;;23.23;15.50;;;;;;;;;;6222885;28;20041;-75
2023/12/10 01:26:36;;;;;;;20.77;10.65;;;;;;;;;;6244231;28;20056;-75
2023/12/10 01:29:38;;;;;;;16.75;10.73;;;;;;;;;;6217093;28;20581;-75
2023/12/10 01:32:40;;;;;;;21.02;12.20;;;;;;;;;;6237932;28;20041;-75
2023/12/10 01:35:44;;;;;;;19.90;11.30;;;;;;;;;;6233923;28;20205;-74
2023/12/10 01:38:46;;;;;;;16.02;10.98;;;;;;;;;;6232347;28;20045;-74
2023/12/10 01:41:48;;;;;;;18.27;11.02;;;;;;;;;;6238976;28;20057;-75
2023/12/10 01:44:50;;;;;;;15.70;9.13;;;;;;;;;;6240421;28;20054;-74
2023/12/10 01:47:52;;;;;;;17.50;10.05;;;;;;;;;;6220567;28;20061;-74
2023/12/10 01:50:55;;;;;;;19.85;11.00;;;;;;;;;;6215018;28;20214;-74
2023/12/10 01:53:58;;;;;;;18.50;10.80;;;;;;;;;;6218639;28;20049;-76
2023/12/10 01:57:00;;;;;;;18.85;10.27;;;;;;;;;;6215629;28;20064;-74
2023/12/10 02:00:08;;;;;;;18.85;10.73;;;;;;;;;;6214741;28;20057;-75
2023/12/10 02:03:14;;;;;;;19.23;10.90;;;;;;;;;;6222949;28;20053;-74
2023/12/10 02:06:16;;;;;;;17.80;11.80;;;;;;;;;;6201154;28;20080;-74
2023/12/10 02:09:19;;;;;;;20.83;11.93;;;;;;;;;;6242822;28;20572;-74
2023/12/10 02:12:21;;;;;;;25.80;11.40;;;;;;;;;;6234959;28;20623;-74
2023/12/10 02:15:27;;;;;;;22.05;12.20;;;;;;;;;;6207629;28;20083;-74
2023/12/10 02:18:29;;;;;;;21.00;12.43;;;;;;;;;;6210542;28;20037;-74
2023/12/10 02:21:32;;;;;;;26.50;13.73;;;;;;;;;;6204690;28;20053;-73
2023/12/10 02:24:56;;;;;;;25.67;13.35;;;;;;;;;;6193605;28;20622;-74
2023/12/10 02:28:02;;;;;;;24.15;15.57;;;;;;;;;;6180842;28;20046;-75
2023/12/10 02:31:05;;;;;;;25.63;11.90;;;;;;;;;;6198484;28;20045;-74
2023/12/10 02:34:07;;;;;;;25.15;15.05;;;;;;;;;;6204561;28;20041;-74
2023/12/10 02:37:09;;;;;;;28.48;14.57;;;;;;;;;;6201211;28;20042;-74
2023/12/10 02:40:12;;;;;;;26.80;13.85;;;;;;;;;;6216784;28;21151;-74
2023/12/10 02:43:16;;;;;;;25.00;13.98;;;;;;;;;;6193037;28;20042;-74
2023/12/10 02:46:18;;;;;;;27.85;14.10;;;;;;;;;;6194558;28;20057;-73
2023/12/10 02:49:21;;;;;;;21.38;12.93;;;;;;;;;;6207976;28;20049;-74
2023/12/10 02:52:23;;;;;;;24.08;13.57;;;;;;;;;;6175942;28;20132;-74
2023/12/10 02:55:25;;;;;;;21.30;12.57;;;;;;;;;;6204964;28;20066;-74
2023/12/10 02:58:27;;;;;;;20.15;12.20;;;;;;;;;;6186302;28;20837;-73
2023/12/10 03:01:30;;;;;;;22.02;12.82;;;;;;;;;;6174040;28;20658;-74
2023/12/10 03:04:32;;;;;;;24.60;12.65;;;;;;;;;;6168623;28;20691;-74
2023/12/10 03:07:34;;;;;;;22.92;14.50;;;;;;;;;;6168745;28;20089;-74
2023/12/10 03:10:36;;;;;;;26.40;13.52;;;;;;;;;;6207307;28;20054;-74
2023/12/10 03:13:38;;;;;;;20.08;12.10;;;;;;;;;;6189976;28;20054;-74
2023/12/10 03:16:40;;;;;;;20.35;12.90;;;;;;;;;;6205055;28;20436;-74
2023/12/10 03:19:44;;;;;;;22.05;14.05;;;;;;;;;;6213183;28;20066;-74
2023/12/10 03:22:46;;;;;;;26.45;13.13;;;;;;;;;;6206517;28;20064;-75
2023/12/10 03:25:48;;;;;;;21.98;12.40;;;;;;;;;;6196354;28;20139;-75
2023/12/10 03:28:51;;;;;;;26.77;13.35;;;;;;;;;;6205814;28;20081;-75
2023/12/10 03:31:54;;;;;;;19.73;11.32;;;;;;;;;;6214251;28;20708;-74
2023/12/10 03:34:57;;;;;;;18.63;12.25;;;;;;;;;;6209595;28;20052;-75
2023/12/10 03:37:59;;;;;;;21.10;11.45;;;;;;;;;;6228675;28;20503;-74
2023/12/10 03:41:02;;;;;;;17.52;10.60;;;;;;;;;;6211130;28;20045;-74
2023/12/10 03:44:04;;;;;;;20.38;11.27;;;;;;;;;;6210938;28;20050;-74
2023/12/10 03:47:06;;;;;;;17.15;10.25;;;;;;;;;;6211287;28;20054;-74
2023/12/10 03:50:09;;;;;;;17.00;9.82;;;;;;;;;;6211235;28;20045;-75
2023/12/10 03:53:11;;;;;;;19.70;10.88;;;;;;;;;;6212616;28;20084;-74
2023/12/10 03:56:13;;;;;;;20.58;12.32;;;;;;;;;;6205224;28;20125;-74
2023/12/10 03:59:15;;;;;;;20.08;11.25;;;;;;;;;;6205737;28;20769;-74
2023/12/10 04:02:19;;;;;;;19.38;10.32;;;;;;;;;;6209550;28;20076;-74
2023/12/10 04:05:21;;;;;;;21.77;11.93;;;;;;;;;;6193475;28;20595;-73
2023/12/10 04:08:23;;;;;;;19.90;10.07;;;;;;;;;;6204443;28;20054;-74
2023/12/10 04:11:25;;;;;;;18.95;10.85;;;;;;;;;;6191930;28;20045;-73
2023/12/10 04:14:27;;;;;;;17.23;9.48;;;;;;;;;;6230365;28;20427;-73
2023/12/10 04:17:29;;;;;;;16.42;9.15;;;;;;;;;;6211861;28;20048;-73
2023/12/10 04:20:33;;;;;;;18.15;9.10;;;;;;;;;;6197210;28;20184;-74
2023/12/10 04:23:37;;;;;;;19.67;12.13;;;;;;;;;;6200724;28;20046;-75
2023/12/10 04:26:39;;;;;;;15.63;9.32;;;;;;;;;;6215906;28;20056;-73
2023/12/10 04:29:42;;;;;;;16.05;9.95;;;;;;;;;;6218333;28;20045;-74
2023/12/10 04:32:44;;;;;;;17.95;8.73;;;;;;;;;;6202197;28;20089;-75
2023/12/10 04:35:46;;;;;;;13.50;8.30;;;;;;;;;;6234612;28;20053;-75
2023/12/10 04:38:49;;;;;;;14.38;9.00;;;;;;;;;;6232142;28;20077;-75
2023/12/10 04:41:51;;;;;;;20.10;12.02;;;;;;;;;;6228846;28;20114;-74
2023/12/10 04:44:53;;;;;;;17.95;10.07;;;;;;;;;;6211541;28;20053;-73
2023/12/10 04:47:55;;;;;;;15.52;8.65;;;;;;;;;;6200947;28;20063;-73
2023/12/10 04:50:57;;;;;;;19.35;9.48;;;;;;;;;;6213426;28;20046;-73
2023/12/10 04:53:59;;;;;;;18.92;9.75;;;;;;;;;;6186279;28;20057;-74
2023/12/10 04:57:02;;;;;;;20.10;8.75;;;;;;;;;;6233669;28;20083;-74
2023/12/10 05:00:08;;;;;;;18.67;11.48;;;;;;;;;;6234946;28;20045;-74
2023/12/10 05:03:12;;;;;;;16.30;10.98;;;;;;;;;;6217360;28;20037;-74
2023/12/10 05:06:14;;;;;;;18.77;10.88;;;;;;;;;;6219915;28;20574;-73
2023/12/10 05:09:16;;;;;;;22.48;12.00;;;;;;;;;;6215517;28;20037;-75
2023/12/10 05:12:18;;;;;;;22.73;11.00;;;;;;;;;;6218787;28;20045;-75
2023/12/10 05:15:21;;;;;;;22.58;12.73;;;;;;;;;;6217322;28;20045;-73
2023/12/10 05:18:23;;;;;;;20.77;10.95;;;;;;;;;;6238052;28;20037;-73
2023/12/10 05:21:26;;;;;;;19.85;11.25;;;;;;;;;;6215621;28;20041;-75
2023/12/10 05:24:29;;;;;;;18.38;10.63;;;;;;;;;;6233760;28;20033;-76
2023/12/10 05:27:32;;;;;;;19.65;12.52;;;;;;;;;;6239154;28;20289;-74
2023/12/10 05:30:35;;;;;;;20.33;9.57;;;;;;;;;;6238953;28;20140;-75
2023/12/10 05:33:37;;;;;;;23.23;12.63;;;;;;;;;;6220780;28;20049;-75
2023/12/10 05:36:40;;;;;;;21.25;11.70;;;;;;;;;;6231563;28;20046;-74
2023/12/10 05:39:42;;;;;;;22.38;11.65;;;;;;;;;;6196269;28;20046;-74
2023/12/10 05:42:44;;;;;;;18.40;10.05;;;;;;;;;;6214665;28;20053;-75
2023/12/10 05:45:47;;;;;;;17.77;9.05;;;;;;;;;;6213201;28;20514;-74
2023/12/10 05:48:52;;;;;;;19.23;10.75;;;;;;;;;;6180774;28;20497;-74
2023/12/10 05:51:55;;;;;;;26.90;15.07;;;;;;;;;;6216828;28;20053;-74
2023/12/10 05:54:57;;;;;;;19.88;9.80;;;;;;;;;;6200316;28;20042;-74
2023/12/10 05:58:01;;;;;;;25.63;14.57;;;;;;;;;;6212999;28;20056;-74
2023/12/10 06:01:03;;;;;;;16.35;9.60;;;;;;;;;;6214602;28;20045;-73
2023/12/10 06:04:05;;;;;;;24.00;12.20;;;;;;;;;;6212609;28;20049;-73
2023/12/10 06:07:07;;;;;;;35.22;18.77;;;;;;;;;;6223443;28;20037;-73
2023/12/10 06:10:10;;;;;;;37.00;19.23;;;;;;;;;;6231736;28;20063;-73
2023/12/10 06:13:12;;;;;;;18.33;11.20;;;;;;;;;;6216919;28;20041;-73
2023/12/10 06:16:15;;;;;;;25.00;13.15;;;;;;;;;;6212881;28;20796;-73
2023/12/10 06:19:17;;;;;;;75.03;33.63;;;;;;;;;;6212828;28;20095;-73
2023/12/10 06:22:19;;;;;;;75.82;38.97;;;;;;;;;;6228844;28;20529;-73
2023/12/10 06:25:22;;;;;;;90.50;47.20;;;;;;;;;;6214806;28;20041;-74
2023/12/10 06:28:24;;;;;;;67.45;36.00;;;;;;;;;;6200826;28;20616;-74
2023/12/10 06:31:26;;;;;;;46.80;24.52;;;;;;;;;;6234890;28;20052;-74
2023/12/10 06:34:28;;;;;;;24.05;13.40;;;;;;;;;;6228311;28;20053;-73
2023/12/10 06:37:32;;;;;;;65.05;35.22;;;;;;;;;;6231865;28;20990;-72
2023/12/10 06:40:34;;;;;;;30.90;20.63;;;;;;;;;;6212059;28;20786;-72
2023/12/10 06:43:36;;;;;;;23.83;12.70;;;;;;;;;;6227588;28;20164;-73
2023/12/10 06:46:38;;;;;;;32.47;17.30;;;;;;;;;;6211633;28;20058;-73
2023/12/10 06:49:41;;;;;;;23.85;14.98;;;;;;;;;;6227536;28;21212;-74
2023/12/10 06:52:44;;;;;;;34.05;21.92;;;;;;;;;;6212468;28;20631;-74
2023/12/10 06:55:46;;;;;;;28.05;17.05;;;;;;;;;;6197244;28;20045;-75
2023/12/10 06:58:48;;;;;;;21.90;12.43;;;;;;;;;;6230588;28;20487;-75
2023/12/10 07:01:50;;;;;;;33.03;20.08;;;;;;;;;;6232877;28;20041;-75
2023/12/10 07:04:52;;;;;;;38.22;17.77;;;;;;;;;;6211966;28;20052;-75
2023/12/10 07:07:55;;;;;;;23.67;14.27;;;;;;;;;;6230997;28;20053;-75
2023/12/10 07:10:57;;;;;;;29.83;15.23;;;;;;;;;;6208136;28;20049;-74
2023/12/10 07:13:59;;;;;;;30.15;16.83;;;;;;;;;;6215585;28;20033;-75
2023/12/10 07:17:02;;;;;;;21.88;12.55;;;;;;;;;;6224117;28;20264;-74
2023/12/10 07:20:09;;;;;;;23.00;14.50;;;;;;;;;;6208159;28;20056;-74
2023/12/10 07:23:11;;;;;;;21.90;13.50;;;;;;;;;;6176221;28;20518;-75
2023/12/10 07:26:16;;;;;;;21.80;13.23;;;;;;;;;;6199329;28;20111;-74
2023/12/10 07:29:19;;;;;;;21.23;12.50;;;;;;;;;;6209026;28;20618;-74
2023/12/10 07:32:21;;;;;;;27.98;14.73;;;;;;;;;;6223857;28;20447;-75
2023/12/10 07:35:23;;;;;;;63.28;37.00;;;;;;;;;;6226650;28;20717;-74
2023/12/10 07:38:25;;;;;;;31.70;16.00;;;;;;;;;;6211189;28;20519;-75
2023/12/10 07:41:27;;;;;;;23.27;15.07;;;;;;;;;;6195001;28;20045;-75
2023/12/10 07:44:29;;;;;;;26.30;15.45;;;;;;;;;;6210466;28;20092;-75
2023/12/10 07:47:31;;;;;;;23.30;12.32;;;;;;;;;;6209661;28;20160;-74
2023/12/10 07:50:33;;;;;;;22.20;12.18;;;;;;;;;;6232463;28;20163;-74
2023/12/10 07:53:35;;;;;;;19.20;10.52;;;;;;;;;;6210222;28;20531;-74
2023/12/10 07:56:37;;;;;;;23.30;15.07;;;;;;;;;;6195995;28;20760;-73
2023/12/10 07:59:40;;;;;;;20.98;11.50;;;;;;;;;;6230240;28;20041;-74
2023/12/10 08:02:42;;;;;;;22.80;11.75;;;;;;;;;;6212754;28;20158;-74
2023/12/10 08:05:45;;;;;;;24.98;14.35;;;;;;;;;;6207567;28;20041;-74
2023/12/10 08:08:47;;;;;;;26.48;14.55;;;;;;;;;;6199320;28;20114;-75
2023/12/10 08:11:50;;;;;;;23.25;13.52;;;;;;;;;;6231456;28;20045;-75
2023/12/10 08:14:52;;;;;;;32.30;16.42;;;;;;;;;;6232878;28;20054;-75
2023/12/10 08:17:55;;;;;;;21.52;11.80;;;;;;;;;;6233668;28;20136;-74
2023/12/10 08:20:57;;;;;;;23.42;12.70;;;;;;;;;;6231578;28;20045;-74
2023/12/10 08:23:59;;;;;;;23.10;14.20;;;;;;;;;;6215382;28;20037;-74
2023/12/10 08:27:01;;;;;;;25.45;12.25;;;;;;;;;;6220541;28;20041;-75
2023/12/10 08:30:04;;;;;;;22.08;13.45;;;;;;;;;;6245014;28;20056;-73
2023/12/10 08:33:06;;;;;;;22.67;11.15;;;;;;;;;;6188668;28;20402;-75
2023/12/10 08:36:09;;;;;;;23.92;13.30;;;;;;;;;;6214594;28;20149;-74
2023/12/10 08:39:12;;;;;;;22.27;13.85;;;;;;;;;;6214349;28;20561;-74
2023/12/10 08:42:16;;;;;;;28.27;16.08;;;;;;;;;;6212804;28;20518;-76
2023/12/10 08:45:18;;;;;;;27.20;17.33;;;;;;;;;;6233939;28;20026;-74
2023/12/10 08:48:20;;;;;;;23.80;16.05;;;;;;;;;;6215626;28;20107;-74
2023/12/10 08:51:22;;;;;;;26.40;14.23;;;;;;;;;;6231374;28;20156;-75
2023/12/10 08:54:24;;;;;;;23.42;13.52;;;;;;;;;;6226147;28;20136;-75
2023/12/10 08:57:27;;;;;;;18.02;10.50;;;;;;;;;;6227944;28;20049;-75
2023/12/10 09:00:29;;;;;;;21.00;13.40;;;;;;;;;;6214553;28;20037;-74
2023/12/10 09:03:31;;;;;;;16.17;10.05;;;;;;;;;;6232965;28;20080;-76
2023/12/10 09:06:36;;;;;;;15.90;9.07;;;;;;;;;;6236081;28;20168;-74
2023/12/10 09:09:38;;;;;;;14.13;8.43;;;;;;;;;;6228641;28;20724;-75
2023/12/10 09:12:40;;;;;;;19.92;10.38;;;;;;;;;;6227604;28;20052;-75
2023/12/10 09:15:43;;;;;;;24.90;15.13;;;;;;;;;;6233233;28;20049;-75
2023/12/10 09:18:45;;;;;;;27.92;16.10;;;;;;;;;;6229564;28;20064;-75
2023/12/10 09:21:48;;;;;;;23.45;14.50;;;;;;;;;;6216865;28;20068;-74
2023/12/10 09:24:50;;;;;;;18.80;12.88;;;;;;;;;;6194889;28;20046;-73
2023/12/10 09:27:52;;;;;;;19.15;11.77;;;;;;;;;;6234546;28;20064;-74
2023/12/10 09:30:56;;;;;;;16.20;9.32;;;;;;;;;;6229182;28;20131;-75
2023/12/10 09:33:58;;;;;;;31.42;18.20;;;;;;;;;;6215482;28;20434;-75
2023/12/10 09:37:01;;;;;;;18.88;11.38;;;;;;;;;;6214317;28;20046;-76
2023/12/10 09:40:05;;;;;;;21.63;14.98;;;;;;;;;;6228571;28;20038;-76
2023/12/10 09:43:07;;;;;;;21.85;12.63;;;;;;;;;;6230929;28;20045;-74
2023/12/10 09:46:10;;;;;;;20.30;12.77;;;;;;;;;;6216999;28;20045;-75
2023/12/10 09:49:14;;;;;;;21.48;14.00;;;;;;;;;;6216452;28;20185;-75
2023/12/10 09:52:18;;;;;;;17.45;10.57;;;;;;;;;;6234788;28;20538;-76
2023/12/10 09:55:20;;;;;;;18.25;11.88;;;;;;;;;;6211235;28;20053;-76
2023/12/10 09:58:22;;;;;;;19.33;10.98;;;;;;;;;;6215477;28;20049;-74
2023/12/10 10:01:24;;;;;;;19.80;12.35;;;;;;;;;;6213289;28;20196;-75
2023/12/10 10:04:26;;;;;;;19.10;12.60;;;;;;;;;;6213599;28;20056;-75
2023/12/10 10:07:29;;;;;;;17.77;11.95;;;;;;;;;;6231844;28;20053;-75
2023/12/10 10:10:31;;;;;;;15.45;9.75;;;;;;;;;;6210753;28;20137;-75
2023/12/10 10:13:34;;;;;;;18.73;10.38;;;;;;;;;;6232494;28;20069;-75
2023/12/10 10:16:36;;;;;;;14.77;8.40;;;;;;;;;;6213359;28;20574;-75
2023/12/10 10:19:39;;;;;;;14.77;10.02;;;;;;;;;;6213749;28;20064;-76
2023/12/10 10:22:42;;;;;;;15.73;10.07;;;;;;;;;;6228523;28;20802;-76
2023/12/10 10:25:44;;;;;;;22.50;13.18;;;;;;;;;;6231977;28;20486;-76
2023/12/10 10:28:46;;;;;;;21.55;13.55;;;;;;;;;;6215348;28;20065;-76
2023/12/10 10:31:49;;;;;;;12.93;7.70;;;;;;;;;;6193405;28;20045;-76
2023/12/10 10:34:51;;;;;;;13.77;7.90;;;;;;;;;;6211337;28;20049;-76
2023/12/10 10:37:54;;;;;;;12.93;7.05;;;;;;;;;;6234492;28;20053;-76
2023/12/10 10:40:59;;;;;;;12.75;7.53;;;;;;;;;;6192538;28;20529;-75
2023/12/10 10:44:01;;;;;;;11.30;6.85;;;;;;;;;;6230286;28;20092;-76
2023/12/10 10:47:07;;;;;;;10.80;6.85;;;;;;;;;;6230738;28;20534;-74
2023/12/10 10:50:10;;;;;;;13.85;5.72;;;;;;;;;;6213598;28;20045;-74
2023/12/10 10:53:25;;;;;;;12.75;8.07;;;;;;;;;;6228578;28;20037;-74
2023/12/10 10:56:27;;;;;;;11.85;7.65;;;;;;;;;;6211622;28;20171;-74
2023/12/10 10:59:33;;;;;;;11.90;6.72;;;;;;;;;;6213400;28;20045;-75
2023/12/10 11:02:35;;;;;;;11.63;6.78;;;;;;;;;;6211098;28;20060;-75
2023/12/10 11:05:39;;;;;;;27.95;16.08;;;;;;;;;;6209986;28;20558;-75
2023/12/10 11:08:58;;;;;;;14.77;9.35;;;;;;;;;;6230056;28;20179;-74
2023/12/10 11:12:00;;;;;;;10.52;6.35;;;;;;;;;;6208045;28;20134;-76
2023/12/10 11:15:04;;;;;;;14.65;8.80;;;;;;;;;;6205476;28;20174;-75
2023/12/10 11:18:06;;;;;;;11.32;6.30;;;;;;;;;;6202019;28;20046;-76
2023/12/10 11:21:13;;;;;;;11.82;7.93;;;;;;;;;;6198611;28;20100;-76
2023/12/10 11:24:16;;;;;;;14.30;9.23;;;;;;;;;;6208337;28;20068;-76
2023/12/10 11:27:18;;;;;;;10.05;6.75;;;;;;;;;;6204616;28;20046;-76
2023/12/10 11:30:21;;;;;;;13.07;7.60;;;;;;;;;;6205265;28;20129;-76
2023/12/10 11:33:41;;;;;;;17.55;10.40;;;;;;;;;;6203387;28;20065;-76
2023/12/10 11:37:18;;;;;;;15.23;8.77;;;;;;;;;;6217552;28;20057;-76
2023/12/10 11:40:21;;;;;;;16.73;9.30;;;;;;;;;;6220229;28;20180;-75
2023/12/10 11:43:23;;;;;;;13.52;8.48;;;;;;;;;;6218114;28;20643;-76
2023/12/10 11:46:26;;;;;;;14.55;8.98;;;;;;;;;;6210200;28;20050;-76
2023/12/10 11:49:42;;;;;;;13.38;7.82;;;;;;;;;;6208903;28;20247;-75
2023/12/10 11:52:45;;;;;;;18.90;8.48;;;;;;;;;;6207437;28;20048;-75
2023/12/10 11:55:48;;;;;;;13.55;7.85;;;;;;;;;;6192406;28;20046;-75
2023/12/10 11:58:50;;;;;;;17.50;8.98;;;;;;;;;;6220508;28;20106;-75
2023/12/10 12:01:52;;;;;;;16.40;10.23;;;;;;;;;;6211448;28;20153;-76
2023/12/10 12:04:54;;;;;;;11.95;7.50;;;;;;;;;;6213185;28;20050;-76
2023/12/10 12:07:57;;;;;;;10.45;6.53;;;;;;;;;;6197757;28;20046;-75
2023/12/10 12:10:59;;;;;;;11.43;7.75;;;;;;;;;;6223189;28;20050;-75
2023/12/10 12:14:02;;;;;;;13.55;7.90;;;;;;;;;;6218752;28;20053;-75
2023/12/10 12:17:04;;;;;;;11.95;7.72;;;;;;;;;;6221396;28;20041;-75
2023/12/10 12:20:25;;;;;;;12.65;7.57;;;;;;;;;;6200986;28;20696;-75
2023/12/10 12:23:27;;;;;;;12.57;6.97;;;;;;;;;;6207685;28;20049;-75
2023/12/10 12:26:30;;;;;;;12.93;8.00;;;;;;;;;;6226219;28;20029;-77
2023/12/10 12:29:33;;;;;;;14.30;7.40;;;;;;;;;;6212492;28;20076;-75
2023/12/10 12:32:35;;;;;;;11.48;7.38;;;;;;;;;;6192568;28;20648;-77
2023/12/10 12:35:37;;;;;;;13.48;7.53;;;;;;;;;;6212658;28;20697;-75
2023/12/10 12:38:39;;;;;;;16.98;8.45;;;;;;;;;;6227013;28;20428;-76
2023/12/10 12:41:41;;;;;;;15.52;8.32;;;;;;;;;;6199753;28;20053;-76
2023/12/10 12:44:46;;;;;;;14.52;9.13;;;;;;;;;;6205784;28;20073;-76
2023/12/10 12:47:49;;;;;;;20.10;10.65;;;;;;;;;;6205825;28;20061;-75
2023/12/10 12:50:51;;;;;;;24.30;15.60;;;;;;;;;;6213687;28;20176;-75
2023/12/10 12:53:54;;;;;;;20.05;12.88;;;;;;;;;;6204566;28;20120;-75
2023/12/10 12:57:14;;;;;;;14.40;8.50;;;;;;;;;;6208697;28;20041;-75
2023/12/10 13:00:17;;;;;;;14.75;9.15;;;;;;;;;;6193514;28;20041;-76
2023/12/10 13:03:19;;;;;;;12.68;7.50;;;;;;;;;;6191530;28;20049;-76
2023/12/10 13:06:22;;;;;;;16.70;10.07;;;;;;;;;;6212446;28;20563;-75
2023/12/10 13:09:24;;;;;;;16.08;9.23;;;;;;;;;;6199307;28;20169;-74
2023/12/10 13:12:26;;;;;;;19.40;11.52;;;;;;;;;;6212978;28;20044;-76
2023/12/10 13:15:28;;;;;;;14.82;9.60;;;;;;;;;;6238009;28;20094;-74
2023/12/10 13:18:32;;;;;;;16.90;9.45;;;;;;;;;;6218913;28;20107;-75
2023/12/10 13:21:45;;;;;;;21.80;12.13;;;;;;;;;;6235851;28;20044;-75
2023/12/10 13:24:50;;;;;;;27.60;14.02;;;;;;;;;;6232213;28;20038;-74
2023/12/10 13:27:53;;;;;;;34.25;17.08;;;;;;;;;;6233432;28;20773;-74
2023/12/10 13:30:55;;;;;;;23.52;12.90;;;;;;;;;;6235507;28;20070;-74
2023/12/10 13:33:59;;;;;;;27.42;13.93;;;;;;;;;;6206245;28;20053;-74
2023/12/10 13:37:01;;;;;;;19.60;11.02;;;;;;;;;;6230679;28;20054;-75
2023/12/10 13:40:05;;;;;;;35.35;16.38;;;;;;;;;;6215398;28;20514;-75
2023/12/10 13:43:07;;;;;;;21.27;11.07;;;;;;;;;;6228214;28;20057;-76
2023/12/10 13:46:10;;;;;;;21.27;10.68;;;;;;;;;;6237381;28;20038;-74
2023/12/10 13:49:12;;;;;;;17.65;9.00;;;;;;;;;;6210246;28;20480;-74
2023/12/10 13:52:15;;;;;;;17.17;9.23;;;;;;;;;;6237782;28;20714;-74
2023/12/10 13:55:17;;;;;;;17.02;9.38;;;;;;;;;;6232071;28;20560;-74
2023/12/10 13:58:20;;;;;;;59.17;24.58;;;;;;;;;;6229813;28;20132;-75
2023/12/10 14:01:22;;;;;;;25.10;12.60;;;;;;;;;;6236428;28;20038;-75
2023/12/10 14:04:24;;;;;;;20.17;10.73;;;;;;;;;;6213917;28;20640;-73
2023/12/10 14:07:27;;;;;;;20.65;11.27;;;;;;;;;;6217064;28;20048;-74
2023/12/10 14:10:32;;;;;;;29.10;13.65;;;;;;;;;;6234424;28;20049;-74
2023/12/10 14:13:36;;;;;;;20.35;10.52;;;;;;;;;;6207306;28;20574;-73
2023/12/10 14:16:38;;;;;;;36.95;17.08;;;;;;;;;;6198372;28;20053;-73
2023/12/10 14:19:40;;;;;;;28.02;14.27;;;;;;;;;;6212772;28;20046;-73
2023/12/10 14:22:43;;;;;;;24.65;13.45;;;;;;;;;;6210330;28;20913;-74
2023/12/10 14:25:45;;;;;;;25.83;14.82;;;;;;;;;;6179973;28;20137;-73
2023/12/10 14:28:47;;;;;;;27.50;13.80;;;;;;;;;;6179597;28;20153;-72
2023/12/10 14:31:49;;;;;;;61.47;27.38;;;;;;;;;;6190007;28;20045;-73
2023/12/10 14:34:51;;;;;;;24.20;12.00;;;;;;;;;;6214837;28;20144;-74
2023/12/10 14:37:54;;;;;;;23.52;12.07;;;;;;;;;;6166094;28;20546;-73
2023/12/10 14:40:56;;;;;;;23.42;14.20;;;;;;;;;;6205222;28;20077;-73
2023/12/10 14:43:58;;;;;;;21.08;14.10;;;;;;;;;;6175478;28;20116;-73
2023/12/10 14:47:01;;;;;;;20.70;10.95;;;;;;;;;;6212890;28;20511;-74
2023/12/10 14:50:04;;;;;;;33.70;16.90;;;;;;;;;;6212874;28;20037;-76
2023/12/10 14:53:06;;;;;;;40.40;20.98;;;;;;;;;;6188463;28;20050;-74
2023/12/10 14:56:08;;;;;;;33.22;19.40;;;;;;;;;;6186001;28;20037;-72
2023/12/10 14:59:11;;;;;;;67.78;37.10;;;;;;;;;;6207481;28;20042;-73
2023/12/10 15:02:14;;;;;;;50.58;28.00;;;;;;;;;;6208214;28;20780;-74
2023/12/10 15:05:17;;;;;;;40.90;24.50;;;;;;;;;;6197397;28;20068;-73
2023/12/10 15:08:19;;;;;;;31.67;18.83;;;;;;;;;;6219563;28;20768;-73
2023/12/10 15:11:21;;;;;;;28.48;15.45;;;;;;;;;;6207782;28;20042;-74
2023/12/10 15:14:23;;;;;;;27.88;16.27;;;;;;;;;;6220100;28;20046;-74
2023/12/10 15:17:25;;;;;;;25.55;17.13;;;;;;;;;;6189212;28;20122;-75
2023/12/10 15:20:28;;;;;;;23.67;12.60;;;;;;;;;;6225291;28;20427;-75
2023/12/10 15:23:30;;;;;;;23.15;10.70;;;;;;;;;;6209745;28;20045;-74
2023/12/10 15:26:32;;;;;;;19.17;11.73;;;;;;;;;;6210523;28;20102;-73
2023/12/10 15:29:35;;;;;;;17.60;10.68;;;;;;;;;;6227166;28;20726;-76
2023/12/10 15:32:37;;;;;;;19.65;10.80;;;;;;;;;;6212124;28;20833;-75
2023/12/10 15:35:39;;;;;;;21.88;12.05;;;;;;;;;;6212543;28;20103;-73
2023/12/10 15:38:42;;;;;;;20.90;11.00;;;;;;;;;;6194579;28;20052;-73
2023/12/10 15:41:44;;;;;;;18.42;10.75;;;;;;;;;;6227843;28;20050;-73
2023/12/10 15:44:47;;;;;;;19.40;10.85;;;;;;;;;;6225459;28;20650;-74
2023/12/10 15:47:50;;;;;;;20.35;11.50;;;;;;;;;;6229964;28;20124;-72
2023/12/10 15:50:53;;;;;;;17.52;10.18;;;;;;;;;;6197308;28;20049;-75
2023/12/10 15:53:55;;;;;;;25.02;12.10;;;;;;;;;;6222302;28;20080;-75
2023/12/10 15:56:58;;;;;;;27.00;15.45;;;;;;;;;;6217769;28;20491;-74
2023/12/10 16:00:01;;;;;;;23.63;12.15;;;;;;;;;;6213169;28;20073;-74
2023/12/10 16:03:13;;;;;;;25.08;16.58;;;;;;;;;;6197700;28;20056;-74
2023/12/10 16:06:16;;;;;;;21.02;11.30;;;;;;;;;;6194936;28;20049;-78
2023/12/10 16:09:18;;;;;;;21.20;12.90;;;;;;;;;;6224675;28;20053;-71
2023/12/10 16:12:20;;;;;;;22.73;11.48;;;;;;;;;;6228303;28;20153;-74
2023/12/10 16:15:23;;;;;;;29.13;15.55;;;;;;;;;;6226407;28;20121;-72
2023/12/10 16:18:27;;;;;;;24.23;10.82;;;;;;;;;;6208460;28;20048;-73
2023/12/10 16:21:30;;;;;;;19.23;11.02;;;;;;;;;;6211253;28;20075;-74
2023/12/10 16:24:32;;;;;;;20.95;12.90;;;;;;;;;;6223387;28;20866;-71
2023/12/10 16:27:35;;;;;;;25.65;12.38;;;;;;;;;;6206143;28;20600;-73
2023/12/10 16:30:38;;;;;;;24.35;12.65;;;;;;;;;;6208867;28;20049;-72
2023/12/10 16:33:40;;;;;;;22.08;11.88;;;;;;;;;;6213789;28;20462;-72
2023/12/10 16:36:43;;;;;;;24.20;13.88;;;;;;;;;;6234700;28;20041;-73
2023/12/10 16:39:47;;;;;;;26.67;14.20;;;;;;;;;;6214886;28;20056;-73
2023/12/10 16:42:49;;;;;;;24.15;12.45;;;;;;;;;;6221601;28;20044;-72
2023/12/10 16:45:51;;;;;;;34.15;14.57;;;;;;;;;;6231794;28;20592;-73
2023/12/10 16:48:53;;;;;;;24.38;13.82;;;;;;;;;;6226720;28;20052;-72
2023/12/10 16:51:56;;;;;;;29.83;16.58;;;;;;;;;;6218197;28;20052;-72
2023/12/10 16:54:59;;;;;;;27.83;15.43;;;;;;;;;;6211260;28;20049;-72
2023/12/10 16:58:02;;;;;;;31.13;16.83;;;;;;;;;;6213667;28;20048;-71
2023/12/10 17:01:04;;;;;;;30.05;16.70;;;;;;;;;;6217461;28;20734;-71
2023/12/10 17:04:06;;;;;;;31.00;17.75;;;;;;;;;;6213666;28;20095;-72
2023/12/10 17:07:09;;;;;;;30.50;15.80;;;;;;;;;;6213877;28;20041;-72
2023/12/10 17:10:11;;;;;;;35.58;17.02;;;;;;;;;;6210654;28;20050;-72
2023/12/10 17:13:14;;;;;;;36.75;19.20;;;;;;;;;;6199126;28;20160;-73
2023/12/10 17:16:16;;;;;;;42.90;21.30;;;;;;;;;;6215267;28;20120;-73
2023/12/10 17:19:18;;;;;;;45.83;25.25;;;;;;;;;;6212187;28;20046;-72
2023/12/10 17:22:20;;;;;;;46.25;23.77;;;;;;;;;;6209622;28;20049;-74
2023/12/10 17:25:23;;;;;;;50.88;26.67;;;;;;;;;;6235823;28;20095;-73
2023/12/10 17:28:25;;;;;;;39.78;20.10;;;;;;;;;;6229415;28;20045;-73
2023/12/10 17:31:27;;;;;;;41.50;20.40;;;;;;;;;;6211664;28;20102;-73
2023/12/10 17:34:30;;;;;;;36.25;18.45;;;;;;;;;;6215427;28;20635;-73
2023/12/10 17:37:32;;;;;;;31.33;18.67;;;;;;;;;;6209241;28;20045;-73
2023/12/10 17:40:34;;;;;;;32.03;18.02;;;;;;;;;;6231546;28;20037;-73
2023/12/10 17:43:36;;;;;;;39.97;17.48;;;;;;;;;;6215838;28;20132;-74
2023/12/10 17:46:38;;;;;;;41.03;21.30;;;;;;;;;;6234409;28;20106;-73
2023/12/10 17:49:41;;;;;;;41.22;22.75;;;;;;;;;;6213386;28;20057;-73